Time;durP1;ratioP1;P1;durP2;ratioP2;P2;SDS_P1;SDS_P2;PMS_P1;PMS_P2;Temp;Humidity;BMP_temperature;BMP_pressure;BME280_temperature;BME280_humidity;BME280_pressure;Samples;Min_cycle;Max_cycle;Signal;HPM_P1;HPM_P2
2022/07/25 00:01:19;;;;;;;1999.90;999.90;;;;;;;22.18;100.00;95131.44;5117093;28;20286;-63
2022/07/25 00:03:44;;;;;;;1999.90;999.90;;;;;;;22.11;100.00;95120.72;5117380;28;20187;-62
2022/07/25 00:06:09;;;;;;;1999.90;999.90;;;;;;;22.15;100.00;95126.09;5117150;28;20228;-64
2022/07/25 00:08:35;;;;;;;1999.90;999.90;;;;;;;22.14;100.00;95119.75;5117043;28;20203;-65
2022/07/25 00:11:00;;;;;;;1999.90;999.90;;;;;;;22.09;100.00;95112.09;5117118;28;20183;-64
2022/07/25 00:13:25;;;;;;;1999.90;999.90;;;;;;;22.05;100.00;95105.97;5117189;28;20247;-63
2022/07/25 00:15:51;;;;;;;1999.90;999.90;;;;;;;21.99;100.00;95094.00;5117164;28;20199;-70
2022/07/25 00:18:16;;;;;;;1999.90;999.90;;;;;;;21.94;100.00;95089.13;5117109;28;20278;-69
2022/07/25 00:20:41;;;;;;;1999.90;999.90;;;;;;;21.92;100.00;95088.81;5116922;28;20207;-61
2022/07/25 00:23:07;;;;;;;1999.90;999.90;;;;;;;21.88;100.00;95082.72;5117309;28;20251;-61
2022/07/25 00:25:32;;;;;;;1999.90;999.90;;;;;;;21.85;100.00;95078.09;5117121;28;20209;-60
2022/07/25 00:27:58;;;;;;;1999.90;999.90;;;;;;;21.79;100.00;95077.28;5117016;28;20186;-61
2022/07/25 00:30:23;;;;;;;1999.90;999.90;;;;;;;21.76;100.00;95069.13;5116778;28;20187;-62
2022/07/25 00:32:48;;;;;;;1999.90;999.90;;;;;;;21.71;100.00;95053.88;5117128;28;20182;-62
2022/07/25 00:35:14;;;;;;;1999.90;999.90;;;;;;;21.65;100.00;95053.03;5116915;28;20191;-64
2022/07/25 00:37:39;;;;;;;1999.90;999.90;;;;;;;21.63;100.00;95047.16;5116554;28;20207;-73
2022/07/25 00:40:05;;;;;;;1999.90;999.90;;;;;;;21.57;100.00;95049.09;5116989;28;20222;-76
2022/07/25 00:42:31;;;;;;;1999.90;999.90;;;;;;;21.50;100.00;95038.41;5116568;28;20183;-78
2022/07/25 00:44:58;;;;;;;1999.90;999.90;;;;;;;21.50;100.00;95032.84;5117091;28;20194;-79
2022/07/25 00:47:24;;;;;;;1999.90;999.90;;;;;;;21.48;100.00;95018.66;5116435;28;20198;-78
2022/07/25 00:49:50;;;;;;;1999.90;999.90;;;;;;;21.46;100.00;95018.34;5117197;28;20175;-76
2022/07/25 00:52:15;;;;;;;1999.90;999.90;;;;;;;21.42;100.00;95015.00;5116604;28;20229;-63
2022/07/25 00:54:40;;;;;;;1999.90;999.90;;;;;;;21.38;100.00;95006.09;5116608;28;20182;-69
2022/07/25 00:57:06;;;;;;;1999.90;999.90;;;;;;;21.35;100.00;94998.72;5116594;28;20198;-66
2022/07/25 00:59:31;;;;;;;1999.90;999.90;;;;;;;21.32;100.00;94994.16;5116485;28;20187;-69
2022/07/25 01:01:56;;;;;;;1999.90;999.90;;;;;;;21.26;100.00;94987.75;5115889;28;20211;-68
2022/07/25 01:04:22;;;;;;;1999.90;999.90;;;;;;;21.22;100.00;94978.84;5116548;28;20183;-69
2022/07/25 01:06:48;;;;;;;1999.90;999.90;;;;;;;21.21;100.00;94966.22;5116355;28;20214;-72
2022/07/25 01:09:14;;;;;;;1999.90;999.90;;;;;;;21.16;100.00;94968.91;5116110;28;20285;-66
2022/07/25 01:11:40;;;;;;;1999.90;999.90;;;;;;;21.13;100.00;94953.94;5096391;28;20231;-61
2022/07/25 01:14:05;;;;;;;1999.90;999.90;;;;;;;21.09;100.00;94950.59;5095810;28;20195;-78
2022/07/25 01:16:31;;;;;;;1999.90;999.90;;;;;;;21.02;100.00;94948.22;5095856;28;20236;-71
2022/07/25 01:18:56;;;;;;;1999.90;999.90;;;;;;;20.98;100.00;94941.34;5095988;28;20188;-84
2022/07/25 01:21:23;;;;;;;1999.90;999.90;;;;;;;20.91;100.00;94931.34;5095625;28;20203;-75
2022/07/25 01:23:49;;;;;;;1999.90;999.90;;;;;;;20.90;100.00;94932.63;5095529;28;20184;-75
2022/07/25 01:26:14;;;;;;;1999.90;999.90;;;;;;;20.87;100.00;94916.91;5096019;28;20190;-71
2022/07/25 01:28:39;;;;;;;1999.90;999.90;;;;;;;20.84;100.00;94914.34;5095437;28;20192;-72
2022/07/25 01:31:05;;;;;;;1999.90;999.90;;;;;;;20.82;100.00;94903.72;5095717;28;20195;-74
2022/07/25 01:33:30;;;;;;;1999.90;999.90;;;;;;;20.75;100.00;94895.00;5095594;28;20244;-69
2022/07/25 01:35:56;;;;;;;1999.90;999.90;;;;;;;20.69;100.00;94883.06;5095648;28;20306;-67
2022/07/25 01:38:21;;;;;;;1999.90;999.90;;;;;;;20.61;100.00;94870.84;5095452;28;20214;-71
2022/07/25 01:40:46;;;;;;;1999.90;999.90;;;;;;;20.56;100.00;94855.63;5095666;28;20208;-69
2022/07/25 01:43:12;;;;;;;1999.90;999.90;;;;;;;20.55;100.00;94854.09;5095767;28;20187;-68
2022/07/25 01:45:38;;;;;;;1999.90;999.90;;;;;;;20.50;100.00;94846.44;5095286;28;20180;-68
2022/07/25 01:48:04;;;;;;;1999.90;999.90;;;;;;;20.51;100.00;94836.13;5096148;28;20180;-61
2022/07/25 01:50:29;;;;;;;1999.90;999.90;;;;;;;20.49;100.00;94844.91;5095561;28;20213;-70
2022/07/25 01:52:55;;;;;;;1999.90;999.90;;;;;;;20.45;100.00;94833.25;5095307;28;20210;-61
2022/07/25 01:55:20;;;;;;;1999.90;999.90;;;;;;;20.38;100.00;94828.09;5095656;28;20274;-62
2022/07/25 01:57:45;;;;;;;1999.90;999.90;;;;;;;20.36;100.00;94815.94;5095709;28;20196;-62
2022/07/25 02:00:13;;;;;;;1999.90;999.90;;;;;;;20.27;100.00;94811.28;5094999;28;20211;-62
2022/07/25 02:02:43;;;;;;;1999.90;999.90;;;;;;;20.24;100.00;94801.13;5095623;28;20187;-62
2022/07/25 02:05:10;;;;;;;1999.90;999.90;;;;;;;20.26;100.00;94797.88;5094968;28;20188;-65
2022/07/25 02:07:36;;;;;;;1999.90;999.90;;;;;;;20.25;100.00;94786.00;5095064;28;20219;-68
2022/07/25 02:10:03;;;;;;;1999.90;999.90;;;;;;;20.25;100.00;94790.81;5095124;28;20242;-65
2022/07/25 02:12:29;;;;;;;1999.90;999.90;;;;;;;20.25;100.00;94786.00;5094941;28;20211;-66
2022/07/25 02:14:54;;;;;;;1999.90;999.90;;;;;;;20.24;100.00;94784.50;5097827;28;20218;-66
2022/07/25 02:17:20;;;;;;;1999.90;999.90;;;;;;;20.22;100.00;94778.66;5098502;28;20187;-68
2022/07/25 02:19:45;;;;;;;1999.90;999.90;;;;;;;20.17;100.00;94768.25;5098664;28;20183;-63
2022/07/25 02:22:11;;;;;;;1999.90;999.90;;;;;;;20.12;100.00;94759.84;5098356;28;20333;-66
2022/07/25 02:24:36;;;;;;;1999.90;999.90;;;;;;;20.10;100.00;94752.00;5098453;28;20215;-77
2022/07/25 02:27:03;;;;;;;1999.90;999.90;;;;;;;20.11;100.00;94748.00;5098578;28;20221;-61
2022/07/25 02:29:28;;;;;;;1999.90;999.90;;;;;;;20.14;100.00;94744.25;5098045;28;20198;-61
2022/07/25 02:31:54;;;;;;;1999.90;999.90;;;;;;;20.13;100.00;94755.81;5098502;28;20278;-63
2022/07/25 02:34:19;;;;;;;1999.90;999.90;;;;;;;20.09;100.00;94739.34;5098324;28;20179;-60
2022/07/25 02:36:44;;;;;;;1999.90;999.90;;;;;;;20.04;100.00;94726.16;5098212;28;20214;-63
2022/07/25 02:39:11;;;;;;;1999.90;999.90;;;;;;;20.01;100.00;94724.34;5098524;28;20183;-63
2022/07/25 02:41:36;;;;;;;1999.90;999.90;;;;;;;20.01;100.00;94721.59;5097804;28;20212;-60
2022/07/25 02:44:03;;;;;;;1999.90;999.90;;;;;;;20.01;100.00;94721.59;5098006;28;20210;-62
2022/07/25 02:46:28;;;;;;;1999.90;999.90;;;;;;;19.98;100.00;94722.53;5116426;28;20192;-62
2022/07/25 02:48:53;;;;;;;1999.90;999.90;;;;;;;20.00;100.00;94720.06;5098566;28;20335;-65
2022/07/25 02:51:19;;;;;;;1999.90;999.90;;;;;;;19.97;100.00;94721.03;5097753;28;20183;-66
2022/07/25 02:53:44;;;;;;;1999.90;999.90;;;;;;;19.93;100.00;94728.78;5097936;28;20191;-63
2022/07/25 02:56:10;;;;;;;1999.90;999.90;;;;;;;19.84;100.00;94717.78;5098213;28;20282;-62
2022/07/25 02:58:35;;;;;;;1999.90;999.90;;;;;;;19.79;100.00;94712.91;5097621;28;20184;-64
2022/07/25 03:01:00;;;;;;;1999.90;999.90;;;;;;;19.79;100.00;94710.13;5097675;28;20209;-64
2022/07/25 03:03:26;;;;;;;1999.90;999.90;;;;;;;19.74;100.00;94710.78;5098012;28;20245;-63
2022/07/25 03:05:51;;;;;;;1999.90;999.90;;;;;;;19.72;100.00;94710.53;5097864;28;20286;-69
2022/07/25 03:08:17;;;;;;;1999.90;999.90;;;;;;;19.68;100.00;94700.88;5098069;28;20234;-69
2022/07/25 03:10:42;;;;;;;1999.90;999.90;;;;;;;19.65;100.00;94694.28;5097995;28;20209;-69
2022/07/25 03:13:07;;;;;;;1999.90;999.90;;;;;;;19.64;100.00;94681.69;5098003;28;20266;-67
2022/07/25 03:15:33;;;;;;;1999.90;999.90;;;;;;;19.63;100.00;94684.94;5097777;28;20337;-68
2022/07/25 03:17:58;;;;;;;1999.90;999.90;;;;;;;19.62;100.00;94689.69;5097216;28;20235;-68
2022/07/25 03:20:23;;;;;;;1999.90;999.90;;;;;;;19.61;100.00;94681.84;5097218;28;20198;-64
2022/07/25 03:22:49;;;;;;;1999.90;999.90;;;;;;;19.62;100.00;94684.16;5098056;28;20183;-74
2022/07/25 03:25:14;;;;;;;1999.90;999.90;;;;;;;19.65;100.00;94685.97;5097514;28;20188;-72
2022/07/25 03:27:40;;;;;;;1999.90;999.90;;;;;;;19.67;100.00;94689.03;5097555;28;20195;-70
2022/07/25 03:30:06;;;;;;;1999.90;999.90;;;;;;;19.72;100.00;94693.91;5097647;28;20222;-73
2022/07/25 03:32:31;;;;;;;1999.90;999.90;;;;;;;19.75;100.00;94692.94;5097109;28;20217;-72
2022/07/25 03:34:56;;;;;;;1999.90;999.90;;;;;;;19.77;100.00;94695.97;5097325;28;20196;-72
2022/07/25 03:37:22;;;;;;;1999.90;999.90;;;;;;;19.77;100.00;94695.97;5097449;28;20222;-73
2022/07/25 03:39:47;;;;;;;1999.90;999.90;;;;;;;19.80;100.00;94706.13;5097193;28;20188;-62
2022/07/25 03:42:13;;;;;;;1999.90;999.90;;;;;;;19.77;100.00;94707.06;5097218;28;20208;-63
2022/07/25 03:44:38;;;;;;;1999.90;999.90;;;;;;;19.78;100.00;94700.31;5097201;28;20189;-65
2022/07/25 03:47:04;;;;;;;1999.90;999.90;;;;;;;19.80;100.00;94708.13;5096985;28;20636;-66
2022/07/25 03:49:30;;;;;;;1999.90;999.90;;;;;;;19.77;100.00;94695.97;5096743;28;20184;-66
2022/07/25 03:51:55;;;;;;;1999.90;999.90;;;;;;;19.80;100.00;94700.56;5097134;28;20291;-64
2022/07/25 03:54:20;;;;;;;1999.90;999.90;;;;;;;19.84;100.00;94711.47;5097109;28;20195;-65
2022/07/25 03:56:48;;;;;;;1999.90;999.90;;;;;;;19.86;100.00;94708.97;5097068;28;20196;-68
2022/07/25 03:59:17;;;;;;;1999.90;999.90;;;;;;;19.94;100.00;94702.56;5097223;28;20187;-63
2022/07/25 04:01:44;;;;;;;1999.90;999.90;;;;;;;20.09;100.00;94717.16;5096544;28;20211;-62
2022/07/25 04:04:10;;;;;;;1999.90;999.90;;;;;;;20.32;100.00;94735.69;5096838;28;20278;-62
2022/07/25 04:06:36;;;;;;;1999.90;999.90;;;;;;;20.61;100.00;94768.91;5096666;28;20226;-62
2022/07/25 04:09:03;;;;;;;1999.90;999.90;;;;;;;20.87;100.00;94803.06;5096736;28;20204;-64
2022/07/25 04:11:29;;;;;;;1999.90;999.90;;;;;;;21.07;100.00;94830.91;5096570;28;20188;-61
2022/07/25 04:13:56;;;;;;;1999.90;999.90;;;;;;;21.36;100.00;94847.47;5114932;28;20206;-66
2022/07/25 04:16:21;;;;;;;1999.90;999.90;;;;;;;21.69;100.00;94877.66;5096474;28;20191;-64
2022/07/25 04:18:47;;;;;;;1999.90;999.90;;;;;;;22.04;100.00;94895.03;5096373;28;20183;-74
2022/07/25 04:21:12;;;;;;;1999.90;999.90;;;;;;;22.36;100.00;94924.44;5096652;28;20241;-71
2022/07/25 04:23:37;;;;;;;1999.90;999.90;;;;;;;22.74;100.00;94945.59;5097120;28;20198;-71
2022/07/25 04:26:03;;;;;;;1999.90;999.90;;;;;;;23.02;100.00;94966.09;5096867;28;20279;-71
2022/07/25 04:28:28;;;;;;;1999.90;999.90;;;;;;;23.36;100.00;94990.19;5096987;28;20192;-71
2022/07/25 04:30:54;;;;;;;1999.90;999.90;;;;;;;23.69;100.00;94993.22;5096404;28;20278;-72
2022/07/25 04:33:20;;;;;;;1999.90;999.90;;;;;;;23.93;100.00;95018.75;5114482;28;20187;-71
2022/07/25 04:35:45;;;;;;;1999.90;999.90;;;;;;;24.07;100.00;95023.41;5095835;28;20175;-65
2022/07/25 04:38:11;;;;;;;1999.90;999.90;;;;;;;24.22;100.00;95038.66;5096393;28;20187;-64
2022/07/25 04:40:36;;;;;;;1999.90;999.90;;;;;;;24.39;100.00;95049.91;5096069;28;20267;-64
2022/07/25 04:43:03;;;;;;;1999.90;999.90;;;;;;;24.75;100.00;95049.06;5096221;28;20188;-64
2022/07/25 04:45:29;;;;;;;1999.90;999.90;;;;;;;25.13;100.00;95067.97;5096420;28;20276;-64
2022/07/25 04:47:54;;;;;;;1999.90;999.90;;;;;;;25.46;100.00;95084.81;5096061;28;20188;-63
2022/07/25 04:50:19;;;;;;;1999.90;999.90;;;;;;;25.44;100.00;95087.34;5096297;28;20238;-63
2022/07/25 04:52:45;;;;;;;1999.90;999.90;;;;;;;25.69;100.00;95089.13;5096054;28;20183;-62
2022/07/25 04:55:10;;;;;;;1999.90;999.90;;;;;;;25.75;100.00;95097.53;5096022;28;20215;-67
2022/07/25 04:57:36;;;;;;;1999.90;999.90;;;;;;;26.05;100.00;95102.09;5095909;28;20278;-64
2022/07/25 05:00:07;;;;;;;1999.90;999.90;;;;;;;26.37;100.00;95111.69;5096215;28;20194;-68
2022/07/25 05:02:33;;;;;;;1999.90;999.90;;;;;;;26.93;100.00;95112.31;5088631;28;20285;-65
2022/07/25 05:04:58;;;;;;;1999.90;999.90;;;;;;;27.45;100.00;95113.81;5096298;28;20232;-65
2022/07/25 05:07:24;;;;;;;1999.90;999.90;;;;;;;27.28;100.00;95115.22;5095618;28;20172;-66
2022/07/25 05:09:49;;;;;;;1999.90;999.90;;;;;;;27.19;100.00;95113.44;5095542;28;20203;-66
2022/07/25 05:12:14;;;;;;;1999.90;999.90;;;;;;;27.29;100.00;95111.91;5095620;28;20275;-70
2022/07/25 05:14:40;;;;;;;1999.90;999.90;;;;;;;27.23;100.00;95108.34;5113879;28;20186;-73
2022/07/25 05:17:05;;;;;;;1999.90;999.90;;;;;;;27.46;100.00;95104.13;5095644;28;20180;-68
2022/07/25 05:19:30;;;;;;;1999.90;999.90;;;;;;;27.49;100.00;95110.72;5113811;28;20189;-70
2022/07/25 05:21:56;;;;;;;1999.90;999.90;;;;;;;27.57;100.00;95115.25;5095211;28;20290;-69
2022/07/25 05:24:24;;;;;;;1999.90;999.90;;;;;;;27.91;100.00;95110.19;5095446;28;20219;-73
2022/07/25 05:26:50;;;;;;;1999.90;999.90;;;;;;;28.11;100.00;95107.69;5095430;28;20294;-70
2022/07/25 05:29:15;;;;;;;1999.90;999.90;;;;;;;28.15;100.00;95108.16;5095643;28;20184;-73
2022/07/25 05:31:41;;;;;;;1999.90;999.90;;;;;;;28.72;100.00;95109.13;5095555;28;20244;-69
2022/07/25 05:34:06;;;;;;;1999.90;999.90;;;;;;;29.41;95.88;95119.25;5095583;28;20219;-67
2022/07/25 05:36:32;;;;;;;1999.90;999.90;;;;;;;30.24;87.04;95132.06;5095514;28;20211;-68
2022/07/25 05:38:57;;;;;;;1999.90;999.90;;;;;;;30.56;85.42;95119.44;5095278;28;20207;-75
2022/07/25 05:41:23;;;;;;;1999.90;999.90;;;;;;;31.20;80.71;95119.22;5095141;28;20219;-69
2022/07/25 05:43:48;;;;;;;1999.90;999.90;;;;;;;31.66;78.63;95127.72;5095369;28;20239;-68
2022/07/25 05:46:14;;;;;;;1999.90;999.90;;;;;;;31.80;77.06;95132.03;5095322;28;20191;-75
2022/07/25 05:48:40;;;;;;;1999.90;999.90;;;;;;;32.64;73.29;95123.75;5097820;28;20180;-66
2022/07/25 05:51:06;;;;;;;1999.90;999.90;;;;;;;33.06;70.30;95122.34;5099178;28;20190;-77
2022/07/25 05:53:31;;;;;;;1999.90;999.90;;;;;;;33.01;70.64;95122.50;5098949;28;20251;-76
2022/07/25 05:55:57;;;;;;;1999.90;999.90;;;;;;;33.38;69.26;95127.63;5099141;28;20274;-71
2022/07/25 05:58:23;;;;;;;1999.90;999.90;;;;;;;33.87;66.72;95133.09;5098779;28;20239;-69
2022/07/25 06:00:49;;;;;;;1999.90;999.90;;;;;;;34.30;64.50;95118.81;5098922;28;20200;-74
2022/07/25 06:03:16;;;;;;;1999.90;999.90;;;;;;;34.60;62.94;95118.81;5098989;28;20190;-68
2022/07/25 06:05:42;;;;;;;1999.90;999.90;;;;;;;35.05;59.83;95127.28;5116808;28;20311;-69
2022/07/25 06:08:07;;;;;;;1999.90;999.90;;;;;;;35.54;58.33;95124.72;5098744;28;20258;-60
2022/07/25 06:10:33;;;;;;;1999.90;999.90;;;;;;;35.84;56.81;95122.47;5098450;28;20278;-62
2022/07/25 06:12:58;;;;;;;1999.90;999.90;;;;;;;36.37;53.68;95119.31;5116880;28;20184;-62
2022/07/25 06:15:23;;;;;;;1999.90;999.90;;;;;;;36.27;52.84;95127.00;5099063;28;20183;-60
2022/07/25 06:17:49;;;;;;;1999.90;999.90;;;;;;;36.25;52.98;95112.56;5098949;28;20188;-62
2022/07/25 06:20:14;;;;;;;1999.90;999.90;;;;;;;36.33;54.08;95113.28;5098242;28;20219;-62
2022/07/25 06:22:39;;;;;;;1999.90;999.90;;;;;;;36.06;53.80;95115.16;5098976;28;20168;-62
2022/07/25 06:25:05;;;;;;;1999.90;999.90;;;;;;;36.14;53.98;95113.00;5098510;28;20175;-69
2022/07/25 06:27:31;;;;;;;1999.90;999.90;;;;;;;36.11;54.82;95114.16;5098892;28;20209;-69
2022/07/25 06:29:56;;;;;;;1999.90;999.90;;;;;;;36.57;52.84;95109.66;5098650;28;20191;-70
2022/07/25 06:32:21;;;;;;;1999.90;999.90;;;;;;;37.05;51.07;95113.78;5098738;28;20187;-71
2022/07/25 06:34:47;;;;;;;1999.90;999.90;;;;;;;37.74;48.37;95118.16;5098980;28;20188;-72
2022/07/25 06:37:12;;;;;;;1999.90;999.90;;;;;;;37.69;47.34;95107.00;5098521;28;20179;-73
2022/07/25 06:39:37;;;;;;;1999.90;999.90;;;;;;;38.12;46.45;95109.84;5098395;28;20198;-75
2022/07/25 06:42:03;;;;;;;1999.90;999.90;;;;;;;38.36;45.81;95114.63;5098526;28;20211;-67
2022/07/25 06:44:33;;;;;;;1999.90;999.90;;;;;;;38.90;43.63;95101.72;5098548;28;20188;-73
2022/07/25 06:47:01;;;;;;;1999.90;999.90;;;;;;;39.37;41.66;95108.13;5116578;28;20205;-66
2022/07/25 06:49:27;;;;;;;1999.90;999.90;;;;;;;39.35;41.26;95099.38;5098364;28;20187;-64
2022/07/25 06:51:52;;;;;;;1999.90;999.90;;;;;;;39.65;40.50;95104.50;5099175;28;20172;-66
2022/07/25 06:54:18;;;;;;;1999.90;999.90;;;;;;;39.88;40.80;95093.34;5098135;28;20217;-66
2022/07/25 06:56:43;;;;;;;1999.90;999.90;;;;;;;40.33;38.84;95093.09;5098049;28;20263;-66
2022/07/25 06:59:09;;;;;;;1999.90;999.90;;;;;;;40.83;37.37;95087.28;5097677;28;20188;-64
2022/07/25 07:01:35;;;;;;;1999.90;999.90;;;;;;;41.08;36.25;95096.22;5116043;28;20199;-61
2022/07/25 07:04:00;;;;;;;1999.90;999.90;;;;;;;41.32;35.51;95089.22;5098384;28;20234;-74
2022/07/25 07:06:25;;;;;;;1999.90;999.90;;;;;;;42.04;32.97;95091.16;5116421;28;20267;-67
2022/07/25 07:08:51;;;;;;;1999.90;999.90;;;;;;;41.34;34.65;95087.25;5098540;28;20202;-67
2022/07/25 07:11:16;;;;;;;1999.90;999.90;;;;;;;41.88;33.42;95079.38;5098488;28;20194;-68
2022/07/25 07:13:42;;;;;;;1999.90;999.90;;;;;;;41.94;32.93;95081.91;5098188;28;20183;-65
2022/07/25 07:16:07;;;;;;;1999.90;999.90;;;;;;;41.79;33.12;95082.31;5098180;28;20275;-65
2022/07/25 07:18:33;;;;;;;1999.90;999.90;;;;;;;41.59;33.71;95072.41;5097952;28;20179;-66
2022/07/25 07:20:58;;;;;;;1999.90;999.90;;;;;;;42.29;33.20;95077.00;5097660;28;20207;-60
2022/07/25 07:23:24;;;;;;;1999.90;999.90;;;;;;;43.09;31.77;95076.25;5097883;28;20183;-72
2022/07/25 07:25:49;;;;;;;1999.90;999.90;;;;;;;43.36;30.81;95082.16;5098257;28;20318;-68
2022/07/25 07:28:16;;;;;;;1999.90;999.90;;;;;;;42.71;32.15;95076.75;5097782;28;20222;-68
2022/07/25 07:30:42;;;;;;;1999.90;999.90;;;;;;;43.19;31.56;95073.97;5097674;28;20184;-66
2022/07/25 07:33:07;;;;;;;1999.90;999.90;;;;;;;42.13;32.42;95069.44;5097875;28;20184;-66
2022/07/25 07:35:32;;;;;;;1999.90;999.90;;;;;;;42.71;32.51;95065.25;5098255;28;20195;-63
2022/07/25 07:37:58;;;;;;;1999.90;999.90;;;;;;;43.01;31.82;95058.50;5098088;28;20168;-62
2022/07/25 07:40:25;;;;;;;1999.90;999.90;;;;;;;43.63;30.76;95070.84;5097766;28;20228;-63
2022/07/25 07:42:51;;;;;;;1999.90;999.90;;;;;;;43.70;30.92;95072.69;5097691;28;20268;-64
2022/07/25 07:45:18;;;;;;;1999.90;999.90;;;;;;;44.94;29.18;95069.47;5097296;28;20183;-66
2022/07/25 07:47:47;;;;;;;1999.90;999.90;;;;;;;43.87;30.83;95065.75;5097234;28;20629;-65
2022/07/25 07:50:14;;;;;;;1999.90;999.90;;;;;;;44.69;28.83;95069.59;5097016;28;20194;-68
2022/07/25 07:52:39;;;;;;;1999.90;999.90;;;;;;;44.16;29.86;95058.03;5097321;28;20204;-69
2022/07/25 07:57:49;;;;;;;1999.90;999.90;;;;;;;44.70;28.76;95056.69;5115824;28;20191;-63
2022/07/25 08:00:16;;;;;;;1999.90;999.90;;;;;;;45.06;28.30;95056.47;5097405;28;20187;-70
2022/07/25 08:02:47;;;;;;;1999.90;999.90;;;;;;;44.94;28.07;95063.72;5097190;28;20183;-68
2022/07/25 08:05:29;;;;;;;1999.90;999.90;;;;;;;45.04;28.39;95061.38;5097311;28;20179;-64
2022/07/25 08:07:55;;;;;;;1999.90;999.90;;;;;;;45.86;27.88;95068.47;5097477;28;20259;-66
2022/07/25 08:10:22;;;;;;;1999.90;999.90;;;;;;;45.76;27.26;95068.00;5096065;28;20241;-66
2022/07/25 08:12:47;;;;;;;1999.90;999.90;;;;;;;45.79;26.56;95067.44;5096497;28;20199;-66
2022/07/25 08:15:13;;;;;;;1999.90;999.90;;;;;;;45.84;26.86;95059.72;5097166;28;20224;-65
2022/07/25 08:17:39;;;;;;;1999.90;999.90;;;;;;;46.12;26.94;95061.84;5097126;28;20316;-63
2022/07/25 08:20:07;;;;;;;1999.90;999.90;;;;;;;46.17;26.16;95057.03;5097162;28;20180;-62
2022/07/25 08:22:42;;;;;;;1999.90;999.90;;;;;;;46.97;25.21;95055.00;5096573;28;20194;-70
2022/07/25 08:25:09;;;;;;;1999.90;999.90;;;;;;;45.97;26.01;95053.13;5097699;28;20182;-64
2022/07/25 08:27:35;;;;;;;1999.90;999.90;;;;;;;46.01;26.06;95050.44;5097630;28;20225;-61
2022/07/25 08:30:03;;;;;;;1999.90;999.90;;;;;;;47.10;24.61;95039.63;5096858;28;20184;-63
2022/07/25 08:32:28;;;;;;;1999.90;999.90;;;;;;;46.95;25.13;95041.16;5096949;28;20214;-66
2022/07/25 08:34:55;;;;;;;1999.90;999.90;;;;;;;47.51;24.06;95040.00;5097165;28;20248;-69
2022/07/25 08:37:20;;;;;;;1999.90;999.90;;;;;;;46.91;24.48;95043.13;5114720;28;20260;-62
2022/07/25 08:39:45;;;;;;;1999.90;999.90;;;;;;;45.94;26.03;95039.97;5096739;28;20220;-66
2022/07/25 08:42:11;;;;;;;1999.90;999.90;;;;;;;46.29;25.64;95040.22;5096695;28;20221;-65
2022/07/25 08:44:40;;;;;;;1999.90;999.90;;;;;;;46.62;24.80;95037.47;5096620;28;20179;-65
2022/07/25 08:47:07;;;;;;;1999.90;999.90;;;;;;;46.57;25.39;95035.78;5096868;28;20236;-64
2022/07/25 08:49:33;;;;;;;1999.90;999.90;;;;;;;47.01;24.87;95026.94;5096919;28;20183;-65
2022/07/25 08:51:59;;;;;;;1999.90;999.90;;;;;;;47.99;22.78;95033.31;5096549;28;20207;-64
2022/07/25 08:54:25;;;;;;;1999.90;999.90;;;;;;;47.44;23.53;95020.88;5096398;28;20183;-64
2022/07/25 08:56:50;;;;;;;1999.90;999.90;;;;;;;47.31;23.12;95032.56;5096376;28;20194;-66
2022/07/25 08:59:16;;;;;;;1999.90;999.90;;;;;;;47.33;22.94;95026.88;5096524;28;20191;-62
2022/07/25 09:01:41;;;;;;;1999.90;999.90;;;;;;;47.44;23.42;95026.66;5114305;28;20271;-66
2022/07/25 09:04:08;;;;;;;1999.90;999.90;;;;;;;46.77;23.78;95025.88;5096734;28;20183;-66
2022/07/25 09:06:34;;;;;;;1999.90;999.90;;;;;;;46.48;24.69;95016.56;5096538;28;20179;-66
2022/07/25 09:09:03;;;;;;;1999.90;999.90;;;;;;;47.14;23.63;95022.47;5096128;28;20207;-62
2022/07/25 09:11:36;;;;;;;1999.90;999.90;;;;;;;46.82;23.33;95006.56;5096819;28;20270;-63
2022/07/25 09:14:09;;;;;;;1999.90;999.90;;;;;;;46.66;23.60;95023.94;5095956;28;20273;-80
2022/07/25 09:16:36;;;;;;;1999.90;999.90;;;;;;;47.04;23.16;95011.16;5096189;28;20307;-63
2022/07/25 09:19:23;;;;;;;1999.90;999.90;;;;;;;45.56;25.59;95017.88;5096056;28;20218;-65
2022/07/25 09:22:04;;;;;;;1999.90;999.90;;;;;;;46.58;24.44;95014.88;5095930;28;20207;-62
2022/07/25 09:24:29;;;;;;;1999.90;999.90;;;;;;;47.13;23.61;95020.19;5095973;28;20239;-64
2022/07/25 09:26:58;;;;;;;1999.90;999.90;;;;;;;46.36;23.09;95013.09;5096095;28;20179;-70
2022/07/25 09:29:25;;;;;;;1999.90;999.90;;;;;;;47.10;22.60;95004.88;5095735;28;20233;-67
2022/07/25 09:31:51;;;;;;;1999.90;999.90;;;;;;;46.68;22.92;95000.13;5096493;28;20198;-62
2022/07/25 09:34:47;;;;;;;1999.90;999.90;;;;;;;46.07;23.34;95010.28;5095609;28;20184;-62
2022/07/25 09:37:15;;;;;;;1999.90;999.90;;;;;;;46.03;23.89;95007.19;5095823;28;20183;-63
2022/07/25 09:39:44;;;;;;;1999.90;999.90;;;;;;;45.80;22.16;95005.38;5095995;28;20302;-61
2022/07/25 09:42:23;;;;;;;1999.90;999.90;;;;;;;46.52;21.63;94999.38;5095775;28;20230;-61
2022/07/25 09:45:03;;;;;;;1999.90;999.90;;;;;;;46.00;21.27;94999.81;5096137;28;20201;-61
2022/07/25 09:47:32;;;;;;;1999.90;999.90;;;;;;;45.83;21.83;94988.88;5095577;28;20176;-64
2022/07/25 09:49:57;;;;;;;1999.90;999.90;;;;;;;45.57;21.71;94990.47;5095553;28;20184;-65
2022/07/25 09:52:23;;;;;;;1999.90;999.90;;;;;;;45.99;20.97;95001.22;5095877;28;20367;-69
2022/07/25 09:54:48;;;;;;;1999.90;999.90;;;;;;;45.27;22.30;95000.50;5095793;28;20179;-74
2022/07/25 09:57:15;;;;;;;1999.90;999.90;;;;;;;45.49;22.45;94995.84;5096165;28;20191;-74
2022/07/25 09:59:40;;;;;;;1999.90;999.90;;;;;;;46.01;22.13;94983.94;5096051;28;20195;-68
2022/07/25 10:02:08;;;;;;;1999.90;999.90;;;;;;;46.12;21.54;94991.72;5095499;28;20204;-70
2022/07/25 10:04:48;;;;;;;1999.90;999.90;;;;;;;46.26;20.88;94995.28;5096196;28;20188;-67
2022/07/25 10:07:18;;;;;;;1999.90;999.90;;;;;;;45.32;22.55;94996.44;5096116;28;20183;-63
2022/07/25 10:09:45;;;;;;;1999.90;999.90;;;;;;;45.84;22.50;94987.50;5095328;28;20207;-67
2022/07/25 10:12:13;;;;;;;1999.90;999.90;;;;;;;45.82;22.30;94982.38;5095712;28;20211;-69
2022/07/25 10:14:39;;;;;;;1999.90;999.90;;;;;;;45.51;22.23;94988.03;5113225;28;20187;-67
2022/07/25 10:17:06;;;;;;;1999.90;999.90;;;;;;;45.49;22.57;94984.31;5095308;28;20184;-67
2022/07/25 10:19:46;;;;;;;1999.90;999.90;;;;;;;45.08;23.31;94969.25;5095902;28;20188;-68
2022/07/25 10:22:13;;;;;;;1999.90;999.90;;;;;;;44.99;23.29;94984.66;5095766;28;20253;-64
2022/07/25 10:24:43;;;;;;;1999.90;999.90;;;;;;;44.49;23.13;94986.34;5095236;28;20219;-62
2022/07/25 10:27:12;;;;;;;1999.90;999.90;;;;;;;44.33;23.28;94973.22;5095372;28;20176;-72
2022/07/25 10:29:39;;;;;;;1999.90;999.90;;;;;;;44.79;22.30;94972.03;5095561;28;20192;-65
2022/07/25 10:32:10;;;;;;;1999.90;999.90;;;;;;;45.21;22.32;94977.13;5095209;28;20219;-70
2022/07/25 10:34:36;;;;;;;1999.90;999.90;;;;;;;44.84;23.12;94971.63;5096335;28;20278;-65
2022/07/25 10:37:17;;;;;;;1999.90;999.90;;;;;;;45.03;22.35;94968.28;5098715;28;20211;-70
2022/07/25 10:39:44;;;;;;;1999.90;999.90;;;;;;;44.09;23.21;94966.13;5099298;28;20191;-73
2022/07/25 10:42:20;;;;;;;1999.90;999.90;;;;;;;44.52;22.80;94960.53;5098455;28;20263;-62
2022/07/25 10:44:52;;;;;;;1999.90;999.90;;;;;;;44.47;23.27;94960.31;5098839;28;20279;-65
2022/07/25 10:47:22;;;;;;;1999.90;999.90;;;;;;;44.73;22.92;94951.53;5098943;28;20176;-67
2022/07/25 10:49:48;;;;;;;1999.90;999.90;;;;;;;43.91;23.62;94951.47;5116776;28;20211;-67